White Sulphur Springs, West Virginia
Current Conditions -  °F | °C
As of 12:35 PM on Saturday 27 Dec 2014 (Local Time) from KLWB Reporting Station
Clear Clear  
Wind Chill: 53°   Ceiling: Unl
Heat Index: 53°   Visibility: 10mi
Dew Point: 27°   Wind: 5mph
Humidity: 37%   Direction: 230°SW
Pressure: 30.25"   Gusts: NA
Location:  37.8°N, 80.3°W
Report Text: KLWB 271735Z AUTO 23004KT 10SM CLR 11/M03 A3025 RMK AO2 T01141028
Loading
Personal Weather Stations






























Interactive Weather Map New forecast layout! Learn more

10-Day Weather Forecast

Advertisements
Track Severe Weather on mobile